sensor_id;sensor_type;location;lat;lon;timestamp;temperature;humidity
18225;DHT22;9237;48.590;8.854;2023-07-31T00:00:18;12.50;99.90
18225;DHT22;9237;48.590;8.854;2023-07-31T00:02:45;12.60;99.90
18225;DHT22;9237;48.590;8.854;2023-07-31T00:05:12;12.60;99.90
18225;DHT22;9237;48.590;8.854;2023-07-31T00:07:39;12.50;99.90
18225;DHT22;9237;48.590;8.854;2023-07-31T00:10:06;12.50;99.90
18225;DHT22;9237;48.590;8.854;2023-07-31T00:12:34;12.50;99.90
18225;DHT22;9237;48.590;8.854;2023-07-31T00:15:01;12.60;99.90
18225;DHT22;9237;48.590;8.854;2023-07-31T00:17:28;12.50;99.90
18225;DHT22;9237;48.590;8.854;2023-07-31T00:19:55;12.50;99.90
18225;DHT22;9237;48.590;8.854;2023-07-31T00:22:22;12.40;99.90
18225;DHT22;9237;48.590;8.854;2023-07-31T00:24:49;12.30;99.90
18225;DHT22;9237;48.590;8.854;2023-07-31T00:27:16;12.20;99.90
18225;DHT22;9237;48.590;8.854;2023-07-31T00:29:44;12.10;99.90
18225;DHT22;9237;48.590;8.854;2023-07-31T00:32:11;12.00;99.90
18225;DHT22;9237;48.590;8.854;2023-07-31T00:34:38;11.90;99.90
18225;DHT22;9237;48.590;8.854;2023-07-31T00:37:05;11.90;99.90
18225;DHT22;9237;48.590;8.854;2023-07-31T00:39:34;11.70;99.90
18225;DHT22;9237;48.590;8.854;2023-07-31T00:42:01;11.70;99.90
18225;DHT22;9237;48.590;8.854;2023-07-31T00:44:27;11.80;99.90
18225;DHT22;9237;48.590;8.854;2023-07-31T00:46:56;11.70;99.90
18225;DHT22;9237;48.590;8.854;2023-07-31T00:49:23;11.70;99.90
18225;DHT22;9237;48.590;8.854;2023-07-31T00:51:50;11.90;99.90
18225;DHT22;9237;48.590;8.854;2023-07-31T00:54:17;11.80;99.90
18225;DHT22;9237;48.590;8.854;2023-07-31T00:56:45;11.70;99.90
18225;DHT22;9237;48.590;8.854;2023-07-31T00:59:13;11.70;99.90
18225;DHT22;9237;48.590;8.854;2023-07-31T01:01:40;11.60;99.90
18225;DHT22;9237;48.590;8.854;2023-07-31T01:04:09;11.60;99.90
18225;DHT22;9237;48.590;8.854;2023-07-31T01:06:39;11.50;99.90
18225;DHT22;9237;48.590;8.854;2023-07-31T01:09:10;11.40;99.90
18225;DHT22;9237;48.590;8.854;2023-07-31T01:11:42;11.30;99.90
18225;DHT22;9237;48.590;8.854;2023-07-31T01:14:10;11.30;99.90
18225;DHT22;9237;48.590;8.854;2023-07-31T01:16:37;11.20;99.90
18225;DHT22;9237;48.590;8.854;2023-07-31T01:19:04;11.10;99.90
18225;DHT22;9237;48.590;8.854;2023-07-31T01:22:02;11.00;99.90
18225;DHT22;9237;48.590;8.854;2023-07-31T01:24:43;10.90;99.90
18225;DHT22;9237;48.590;8.854;2023-07-31T01:27:19;10.90;99.90
18225;DHT22;9237;48.590;8.854;2023-07-31T01:29:51;11.00;99.90
18225;DHT22;9237;48.590;8.854;2023-07-31T01:32:21;10.90;99.90
18225;DHT22;9237;48.590;8.854;2023-07-31T01:34:49;10.90;99.90
18225;DHT22;9237;48.590;8.854;2023-07-31T01:37:16;11.00;99.90
18225;DHT22;9237;48.590;8.854;2023-07-31T01:39:43;10.90;99.90
18225;DHT22;9237;48.590;8.854;2023-07-31T01:42:10;11.00;99.90
18225;DHT22;9237;48.590;8.854;2023-07-31T01:44:38;11.10;99.90
18225;DHT22;9237;48.590;8.854;2023-07-31T01:47:05;11.10;99.90
18225;DHT22;9237;48.590;8.854;2023-07-31T01:49:32;11.00;99.90
18225;DHT22;9237;48.590;8.854;2023-07-31T01:51:59;11.00;99.90
18225;DHT22;9237;48.590;8.854;2023-07-31T01:54:25;11.20;99.90
18225;DHT22;9237;48.590;8.854;2023-07-31T01:56:52;10.80;99.90
18225;DHT22;9237;48.590;8.854;2023-07-31T01:59:19;11.40;99.90
18225;DHT22;9237;48.590;8.854;2023-07-31T02:01:47;11.40;99.90
18225;DHT22;9237;48.590;8.854;2023-07-31T02:04:14;11.00;99.90
18225;DHT22;9237;48.590;8.854;2023-07-31T02:06:40;11.20;99.90
18225;DHT22;9237;48.590;8.854;2023-07-31T02:09:07;11.70;99.90
18225;DHT22;9237;48.590;8.854;2023-07-31T02:11:34;11.30;99.90
18225;DHT22;9237;48.590;8.854;2023-07-31T02:14:01;11.30;99.90
18225;DHT22;9237;48.590;8.854;2023-07-31T02:16:28;11.30;99.90
18225;DHT22;9237;48.590;8.854;2023-07-31T02:18:56;11.20;99.90
18225;DHT22;9237;48.590;8.854;2023-07-31T02:21:23;11.10;99.90
18225;DHT22;9237;48.590;8.854;2023-07-31T02:23:49;11.00;99.90
18225;DHT22;9237;48.590;8.854;2023-07-31T02:26:16;10.90;99.90
18225;DHT22;9237;48.590;8.854;2023-07-31T02:28:43;10.90;99.90
18225;DHT22;9237;48.590;8.854;2023-07-31T02:31:10;10.90;99.90
18225;DHT22;9237;48.590;8.854;2023-07-31T02:33:36;10.90;99.90
18225;DHT22;9237;48.590;8.854;2023-07-31T02:36:05;11.50;99.90
18225;DHT22;9237;48.590;8.854;2023-07-31T02:38:31;11.00;99.90
18225;DHT22;9237;48.590;8.854;2023-07-31T02:40:58;10.90;99.90
18225;DHT22;9237;48.590;8.854;2023-07-31T02:43:25;10.80;99.90
18225;DHT22;9237;48.590;8.854;2023-07-31T02:45:52;10.80;99.90
18225;DHT22;9237;48.590;8.854;2023-07-31T02:48:19;10.70;99.90
18225;DHT22;9237;48.590;8.854;2023-07-31T02:50:47;10.60;99.90
18225;DHT22;9237;48.590;8.854;2023-07-31T02:53:15;10.50;99.90
18225;DHT22;9237;48.590;8.854;2023-07-31T02:55:42;10.80;99.90
18225;DHT22;9237;48.590;8.854;2023-07-31T02:58:08;10.50;99.90
18225;DHT22;9237;48.590;8.854;2023-07-31T03:00:35;10.50;99.90
18225;DHT22;9237;48.590;8.854;2023-07-31T03:03:02;10.60;99.90
18225;DHT22;9237;48.590;8.854;2023-07-31T03:05:29;10.60;99.90
18225;DHT22;9237;48.590;8.854;2023-07-31T03:07:55;10.70;99.90
18225;DHT22;9237;48.590;8.854;2023-07-31T03:10:24;10.70;99.90
18225;DHT22;9237;48.590;8.854;2023-07-31T03:12:50;10.80;99.90
18225;DHT22;9237;48.590;8.854;2023-07-31T03:15:17;11.00;99.90
18225;DHT22;9237;48.590;8.854;2023-07-31T03:17:44;10.80;99.90
18225;DHT22;9237;48.590;8.854;2023-07-31T03:20:11;10.90;99.90
18225;DHT22;9237;48.590;8.854;2023-07-31T03:22:38;11.00;99.90
18225;DHT22;9237;48.590;8.854;2023-07-31T03:25:05;11.00;99.90
18225;DHT22;9237;48.590;8.854;2023-07-31T03:27:34;11.00;99.90
18225;DHT22;9237;48.590;8.854;2023-07-31T03:30:00;11.10;99.90
18225;DHT22;9237;48.590;8.854;2023-07-31T03:32:27;11.00;99.90
18225;DHT22;9237;48.590;8.854;2023-07-31T03:34:54;10.90;99.90
18225;DHT22;9237;48.590;8.854;2023-07-31T03:37:21;10.90;99.90
18225;DHT22;9237;48.590;8.854;2023-07-31T03:39:47;10.90;99.90
18225;DHT22;9237;48.590;8.854;2023-07-31T03:42:14;10.80;99.90
18225;DHT22;9237;48.590;8.854;2023-07-31T03:44:42;10.90;99.90
18225;DHT22;9237;48.590;8.854;2023-07-31T03:47:09;10.80;99.90
18225;DHT22;9237;48.590;8.854;2023-07-31T03:49:36;10.80;99.90
18225;DHT22;9237;48.590;8.854;2023-07-31T03:52:04;10.90;99.90
18225;DHT22;9237;48.590;8.854;2023-07-31T03:54:31;10.90;99.90
18225;DHT22;9237;48.590;8.854;2023-07-31T03:56:58;11.20;99.90
18225;DHT22;9237;48.590;8.854;2023-07-31T03:59:25;11.00;99.90
18225;DHT22;9237;48.590;8.854;2023-07-31T04:01:53;10.90;99.90
18225;DHT22;9237;48.590;8.854;2023-07-31T04:04:19;11.20;99.90
18225;DHT22;9237;48.590;8.854;2023-07-31T04:06:46;11.00;99.90
18225;DHT22;9237;48.590;8.854;2023-07-31T04:09:13;11.10;99.90
18225;DHT22;9237;48.590;8.854;2023-07-31T04:11:40;11.00;99.90
18225;DHT22;9237;48.590;8.854;2023-07-31T04:14:07;11.00;99.90
18225;DHT22;9237;48.590;8.854;2023-07-31T04:16:33;11.10;99.90
18225;DHT22;9237;48.590;8.854;2023-07-31T04:19:01;11.10;99.90
18225;DHT22;9237;48.590;8.854;2023-07-31T04:21:28;11.00;99.90
18225;DHT22;9237;48.590;8.854;2023-07-31T04:23:55;11.00;99.90
18225;DHT22;9237;48.590;8.854;2023-07-31T04:26:23;11.10;99.90
18225;DHT22;9237;48.590;8.854;2023-07-31T04:28:50;11.60;99.90
18225;DHT22;9237;48.590;8.854;2023-07-31T04:31:17;11.30;99.90
18225;DHT22;9237;48.590;8.854;2023-07-31T04:33:44;11.30;99.90
18225;DHT22;9237;48.590;8.854;2023-07-31T04:36:36;11.40;99.90
18225;DHT22;9237;48.590;8.854;2023-07-31T04:39:02;11.40;99.90
18225;DHT22;9237;48.590;8.854;2023-07-31T04:41:29;11.40;99.90
18225;DHT22;9237;48.590;8.854;2023-07-31T04:43:56;11.40;99.90
18225;DHT22;9237;48.590;8.854;2023-07-31T04:46:23;11.90;99.90
18225;DHT22;9237;48.590;8.854;2023-07-31T04:48:50;11.50;99.90
18225;DHT22;9237;48.590;8.854;2023-07-31T04:51:16;11.60;99.90
18225;DHT22;9237;48.590;8.854;2023-07-31T04:53:44;11.60;99.90
18225;DHT22;9237;48.590;8.854;2023-07-31T04:56:11;11.70;99.90
18225;DHT22;9237;48.590;8.854;2023-07-31T04:58:38;11.70;99.90
18225;DHT22;9237;48.590;8.854;2023-07-31T05:01:05;11.80;99.90
18225;DHT22;9237;48.590;8.854;2023-07-31T05:03:31;11.90;99.90
18225;DHT22;9237;48.590;8.854;2023-07-31T05:05:58;12.10;99.90
18225;DHT22;9237;48.590;8.854;2023-07-31T05:08:25;12.20;99.90
18225;DHT22;9237;48.590;8.854;2023-07-31T05:10:53;12.30;99.90
18225;DHT22;9237;48.590;8.854;2023-07-31T05:13:20;12.50;99.90
18225;DHT22;9237;48.590;8.854;2023-07-31T05:15:46;12.70;99.90
18225;DHT22;9237;48.590;8.854;2023-07-31T05:18:15;12.90;99.90
18225;DHT22;9237;48.590;8.854;2023-07-31T05:20:41;13.10;99.90
18225;DHT22;9237;48.590;8.854;2023-07-31T05:23:08;13.30;99.90
18225;DHT22;9237;48.590;8.854;2023-07-31T05:25:35;13.60;99.90
18225;DHT22;9237;48.590;8.854;2023-07-31T05:28:03;13.90;99.90
18225;DHT22;9237;48.590;8.854;2023-07-31T05:30:30;14.20;99.90
18225;DHT22;9237;48.590;8.854;2023-07-31T05:32:57;14.50;99.90
18225;DHT22;9237;48.590;8.854;2023-07-31T05:35:24;14.90;99.90
18225;DHT22;9237;48.590;8.854;2023-07-31T05:37:51;15.00;99.90
18225;DHT22;9237;48.590;8.854;2023-07-31T05:40:17;15.30;99.90
18225;DHT22;9237;48.590;8.854;2023-07-31T05:42:44;15.50;99.90
18225;DHT22;9237;48.590;8.854;2023-07-31T05:45:12;15.70;99.90
18225;DHT22;9237;48.590;8.854;2023-07-31T05:47:40;15.80;99.90
18225;DHT22;9237;48.590;8.854;2023-07-31T05:50:07;15.60;99.90
18225;DHT22;9237;48.590;8.854;2023-07-31T05:52:35;15.50;99.90
18225;DHT22;9237;48.590;8.854;2023-07-31T05:55:07;15.40;99.90
18225;DHT22;9237;48.590;8.854;2023-07-31T05:57:34;15.30;99.90
18225;DHT22;9237;48.590;8.854;2023-07-31T06:00:02;15.30;99.90
18225;DHT22;9237;48.590;8.854;2023-07-31T06:02:30;15.20;99.90
18225;DHT22;9237;48.590;8.854;2023-07-31T06:04:58;15.10;99.90
18225;DHT22;9237;48.590;8.854;2023-07-31T06:07:26;15.20;99.90
18225;DHT22;9237;48.590;8.854;2023-07-31T06:09:52;15.20;99.90
18225;DHT22;9237;48.590;8.854;2023-07-31T06:12:20;15.30;99.90
18225;DHT22;9237;48.590;8.854;2023-07-31T06:14:47;15.30;99.90
18225;DHT22;9237;48.590;8.854;2023-07-31T06:17:13;15.50;99.90
18225;DHT22;9237;48.590;8.854;2023-07-31T06:19:41;15.70;99.90
18225;DHT22;9237;48.590;8.854;2023-07-31T06:22:09;16.40;99.90
18225;DHT22;9237;48.590;8.854;2023-07-31T06:24:36;16.50;99.90
18225;DHT22;9237;48.590;8.854;2023-07-31T06:27:03;16.90;99.90
18225;DHT22;9237;48.590;8.854;2023-07-31T06:29:31;17.30;99.90
18225;DHT22;9237;48.590;8.854;2023-07-31T06:31:59;17.50;99.90
18225;DHT22;9237;48.590;8.854;2023-07-31T06:34:26;18.00;99.90
18225;DHT22;9237;48.590;8.854;2023-07-31T06:36:55;18.30;99.90
18225;DHT22;9237;48.590;8.854;2023-07-31T06:39:22;18.40;99.90
18225;DHT22;9237;48.590;8.854;2023-07-31T06:41:49;18.20;99.90
18225;DHT22;9237;48.590;8.854;2023-07-31T06:44:16;18.10;99.90
18225;DHT22;9237;48.590;8.854;2023-07-31T06:46:42;18.00;99.90
18225;DHT22;9237;48.590;8.854;2023-07-31T06:49:09;18.00;99.90
18225;DHT22;9237;48.590;8.854;2023-07-31T06:51:36;18.00;99.90
18225;DHT22;9237;48.590;8.854;2023-07-31T06:54:05;18.20;99.90
18225;DHT22;9237;48.590;8.854;2023-07-31T06:56:32;18.20;99.90
18225;DHT22;9237;48.590;8.854;2023-07-31T06:58:58;18.20;99.90
18225;DHT22;9237;48.590;8.854;2023-07-31T07:01:25;18.30;99.90
18225;DHT22;9237;48.590;8.854;2023-07-31T07:03:53;18.10;99.90
18225;DHT22;9237;48.590;8.854;2023-07-31T07:06:20;18.00;99.90
18225;DHT22;9237;48.590;8.854;2023-07-31T07:08:47;19.10;99.90
18225;DHT22;9237;48.590;8.854;2023-07-31T07:11:15;18.30;99.90
18225;DHT22;9237;48.590;8.854;2023-07-31T07:13:42;18.40;99.90
18225;DHT22;9237;48.590;8.854;2023-07-31T07:16:08;18.70;99.90
18225;DHT22;9237;48.590;8.854;2023-07-31T07:18:36;19.00;99.90
18225;DHT22;9237;48.590;8.854;2023-07-31T07:21:02;19.60;99.90
18225;DHT22;9237;48.590;8.854;2023-07-31T07:23:29;19.50;99.90
18225;DHT22;9237;48.590;8.854;2023-07-31T07:25:56;19.50;99.90
18225;DHT22;9237;48.590;8.854;2023-07-31T07:28:24;19.40;99.90
18225;DHT22;9237;48.590;8.854;2023-07-31T07:30:52;19.20;99.90
18225;DHT22;9237;48.590;8.854;2023-07-31T07:33:19;19.10;99.90
18225;DHT22;9237;48.590;8.854;2023-07-31T07:35:46;19.10;99.90
18225;DHT22;9237;48.590;8.854;2023-07-31T07:38:13;19.40;99.90
18225;DHT22;9237;48.590;8.854;2023-07-31T07:40:40;19.70;99.90
18225;DHT22;9237;48.590;8.854;2023-07-31T07:43:08;19.60;99.90
18225;DHT22;9237;48.590;8.854;2023-07-31T07:45:36;19.70;99.90
18225;DHT22;9237;48.590;8.854;2023-07-31T07:48:03;20.10;99.90
18225;DHT22;9237;48.590;8.854;2023-07-31T07:50:30;20.00;99.90
18225;DHT22;9237;48.590;8.854;2023-07-31T07:52:57;20.10;99.90
18225;DHT22;9237;48.590;8.854;2023-07-31T07:55:24;20.70;99.90
18225;DHT22;9237;48.590;8.854;2023-07-31T07:57:51;21.30;99.90
18225;DHT22;9237;48.590;8.854;2023-07-31T08:00:19;21.80;99.90
18225;DHT22;9237;48.590;8.854;2023-07-31T08:02:47;22.50;99.90
18225;DHT22;9237;48.590;8.854;2023-07-31T08:05:14;22.30;99.90
18225;DHT22;9237;48.590;8.854;2023-07-31T08:07:43;22.60;99.90
18225;DHT22;9237;48.590;8.854;2023-07-31T08:10:09;23.20;99.90
18225;DHT22;9237;48.590;8.854;2023-07-31T08:12:36;23.30;99.90
18225;DHT22;9237;48.590;8.854;2023-07-31T08:15:04;23.80;99.90
18225;DHT22;9237;48.590;8.854;2023-07-31T08:17:31;23.70;99.90
18225;DHT22;9237;48.590;8.854;2023-07-31T08:19:59;24.00;99.90
18225;DHT22;9237;48.590;8.854;2023-07-31T08:22:26;24.50;99.90
18225;DHT22;9237;48.590;8.854;2023-07-31T08:24:52;24.30;99.90
18225;DHT22;9237;48.590;8.854;2023-07-31T08:27:19;24.40;99.90
18225;DHT22;9237;48.590;8.854;2023-07-31T08:29:46;24.10;99.90
18225;DHT22;9237;48.590;8.854;2023-07-31T08:32:13;24.30;99.90
18225;DHT22;9237;48.590;8.854;2023-07-31T08:34:39;23.60;99.90
18225;DHT22;9237;48.590;8.854;2023-07-31T08:37:08;23.70;99.90
18225;DHT22;9237;48.590;8.854;2023-07-31T08:39:36;23.30;99.90
18225;DHT22;9237;48.590;8.854;2023-07-31T08:42:08;23.00;99.90
18225;DHT22;9237;48.590;8.854;2023-07-31T08:44:35;22.90;99.90
18225;DHT22;9237;48.590;8.854;2023-07-31T08:47:03;22.40;99.90
18225;DHT22;9237;48.590;8.854;2023-07-31T08:49:30;22.10;99.90
18225;DHT22;9237;48.590;8.854;2023-07-31T08:51:58;21.90;99.90
18225;DHT22;9237;48.590;8.854;2023-07-31T08:54:26;21.80;99.90
18225;DHT22;9237;48.590;8.854;2023-07-31T08:56:56;21.70;99.90
18225;DHT22;9237;48.590;8.854;2023-07-31T08:59:25;22.30;99.90
18225;DHT22;9237;48.590;8.854;2023-07-31T09:01:53;22.60;99.90
18225;DHT22;9237;48.590;8.854;2023-07-31T09:04:21;23.10;99.90
18225;DHT22;9237;48.590;8.854;2023-07-31T09:06:50;22.80;99.90
18225;DHT22;9237;48.590;8.854;2023-07-31T09:09:17;22.40;99.90
18225;DHT22;9237;48.590;8.854;2023-07-31T09:11:47;22.30;99.90
18225;DHT22;9237;48.590;8.854;2023-07-31T09:14:16;22.00;99.90
18225;DHT22;9237;48.590;8.854;2023-07-31T09:16:54;22.10;99.90
18225;DHT22;9237;48.590;8.854;2023-07-31T09:19:29;22.10;99.90
18225;DHT22;9237;48.590;8.854;2023-07-31T09:21:55;22.00;98.90
18225;DHT22;9237;48.590;8.854;2023-07-31T09:24:26;21.90;99.90
18225;DHT22;9237;48.590;8.854;2023-07-31T09:26:55;21.60;99.10
18225;DHT22;9237;48.590;8.854;2023-07-31T09:29:22;22.00;99.70
18225;DHT22;9237;48.590;8.854;2023-07-31T09:31:50;22.10;98.90
18225;DHT22;9237;48.590;8.854;2023-07-31T09:34:17;21.70;98.00
18225;DHT22;9237;48.590;8.854;2023-07-31T09:36:45;21.70;97.40
18225;DHT22;9237;48.590;8.854;2023-07-31T09:39:13;21.50;97.30
18225;DHT22;9237;48.590;8.854;2023-07-31T09:41:43;21.40;97.00
18225;DHT22;9237;48.590;8.854;2023-07-31T09:44:11;21.20;96.80
18225;DHT22;9237;48.590;8.854;2023-07-31T09:46:38;21.30;97.20
18225;DHT22;9237;48.590;8.854;2023-07-31T09:49:07;21.20;97.40
18225;DHT22;9237;48.590;8.854;2023-07-31T09:51:34;21.70;96.00
18225;DHT22;9237;48.590;8.854;2023-07-31T09:54:13;22.20;95.40
18225;DHT22;9237;48.590;8.854;2023-07-31T09:56:43;22.90;94.60
18225;DHT22;9237;48.590;8.854;2023-07-31T09:59:13;23.20;93.70
18225;DHT22;9237;48.590;8.854;2023-07-31T10:01:41;23.60;93.10
18225;DHT22;9237;48.590;8.854;2023-07-31T10:04:11;23.70;92.20
18225;DHT22;9237;48.590;8.854;2023-07-31T10:06:38;24.20;92.00
18225;DHT22;9237;48.590;8.854;2023-07-31T10:09:08;24.60;92.40
18225;DHT22;9237;48.590;8.854;2023-07-31T10:11:41;25.00;91.50
18225;DHT22;9237;48.590;8.854;2023-07-31T10:14:09;25.00;88.90
18225;DHT22;9237;48.590;8.854;2023-07-31T10:16:39;24.50;89.30
18225;DHT22;9237;48.590;8.854;2023-07-31T10:19:07;24.50;90.10
18225;DHT22;9237;48.590;8.854;2023-07-31T10:21:35;24.80;90.10
18225;DHT22;9237;48.590;8.854;2023-07-31T10:24:03;24.80;88.80
18225;DHT22;9237;48.590;8.854;2023-07-31T10:26:31;25.10;87.10
18225;DHT22;9237;48.590;8.854;2023-07-31T10:28:58;25.50;86.50
18225;DHT22;9237;48.590;8.854;2023-07-31T10:31:27;26.10;85.00
18225;DHT22;9237;48.590;8.854;2023-07-31T10:33:56;26.20;83.50
18225;DHT22;9237;48.590;8.854;2023-07-31T10:36:24;25.80;84.90
18225;DHT22;9237;48.590;8.854;2023-07-31T10:38:51;26.30;86.00
18225;DHT22;9237;48.590;8.854;2023-07-31T10:41:19;27.70;84.30
18225;DHT22;9237;48.590;8.854;2023-07-31T10:43:46;28.00;79.50
18225;DHT22;9237;48.590;8.854;2023-07-31T10:46:15;26.80;80.20
18225;DHT22;9237;48.590;8.854;2023-07-31T10:48:42;26.90;83.20
18225;DHT22;9237;48.590;8.854;2023-07-31T10:51:10;27.20;80.90
18225;DHT22;9237;48.590;8.854;2023-07-31T10:53:39;26.60;80.30
18225;DHT22;9237;48.590;8.854;2023-07-31T10:56:08;26.40;80.70
18225;DHT22;9237;48.590;8.854;2023-07-31T10:58:36;26.70;79.60
18225;DHT22;9237;48.590;8.854;2023-07-31T11:01:04;27.70;76.90
18225;DHT22;9237;48.590;8.854;2023-07-31T11:03:42;28.00;79.80
18225;DHT22;9237;48.590;8.854;2023-07-31T11:06:10;27.60;78.60
18225;DHT22;9237;48.590;8.854;2023-07-31T11:08:42;26.60;79.40
18225;DHT22;9237;48.590;8.854;2023-07-31T11:11:11;25.70;80.00
18225;DHT22;9237;48.590;8.854;2023-07-31T11:13:42;24.80;81.30
18225;DHT22;9237;48.590;8.854;2023-07-31T11:16:10;24.20;81.30
18225;DHT22;9237;48.590;8.854;2023-07-31T11:18:40;23.80;82.30
18225;DHT22;9237;48.590;8.854;2023-07-31T11:21:07;23.40;83.90
18225;DHT22;9237;48.590;8.854;2023-07-31T11:23:36;23.10;84.60
18225;DHT22;9237;48.590;8.854;2023-07-31T11:26:05;22.80;87.60
18225;DHT22;9237;48.590;8.854;2023-07-31T11:28:36;22.50;87.00
18225;DHT22;9237;48.590;8.854;2023-07-31T11:31:49;22.30;88.00
18225;DHT22;9237;48.590;8.854;2023-07-31T11:34:30;22.10;90.50
18225;DHT22;9237;48.590;8.854;2023-07-31T11:36:57;22.40;89.80
18225;DHT22;9237;48.590;8.854;2023-07-31T11:39:25;22.50;89.70
18225;DHT22;9237;48.590;8.854;2023-07-31T11:41:58;22.90;90.10
18225;DHT22;9237;48.590;8.854;2023-07-31T11:44:25;22.60;88.50
18225;DHT22;9237;48.590;8.854;2023-07-31T11:46:52;22.60;87.90
18225;DHT22;9237;48.590;8.854;2023-07-31T11:49:19;22.60;88.90
18225;DHT22;9237;48.590;8.854;2023-07-31T11:51:46;22.60;90.20
18225;DHT22;9237;48.590;8.854;2023-07-31T11:54:13;22.40;90.80
18225;DHT22;9237;48.590;8.854;2023-07-31T11:56:41;22.40;90.50
18225;DHT22;9237;48.590;8.854;2023-07-31T11:59:08;22.00;92.30
18225;DHT22;9237;48.590;8.854;2023-07-31T12:01:35;21.60;94.20
18225;DHT22;9237;48.590;8.854;2023-07-31T12:04:02;21.50;94.40
18225;DHT22;9237;48.590;8.854;2023-07-31T12:06:33;21.60;93.20
18225;DHT22;9237;48.590;8.854;2023-07-31T12:09:02;21.90;94.70
18225;DHT22;9237;48.590;8.854;2023-07-31T12:11:29;22.00;94.00
18225;DHT22;9237;48.590;8.854;2023-07-31T12:13:57;22.30;93.80
18225;DHT22;9237;48.590;8.854;2023-07-31T12:16:26;22.20;92.60
18225;DHT22;9237;48.590;8.854;2023-07-31T12:18:53;22.70;93.40
18225;DHT22;9237;48.590;8.854;2023-07-31T12:21:20;23.30;91.30
18225;DHT22;9237;48.590;8.854;2023-07-31T12:23:47;24.00;91.90
18225;DHT22;9237;48.590;8.854;2023-07-31T12:26:15;25.30;89.10
18225;DHT22;9237;48.590;8.854;2023-07-31T12:28:43;27.10;85.50
18225;DHT22;9237;48.590;8.854;2023-07-31T12:31:13;27.60;78.70
18225;DHT22;9237;48.590;8.854;2023-07-31T12:33:41;27.10;77.60
18225;DHT22;9237;48.590;8.854;2023-07-31T12:36:10;26.60;76.70
18225;DHT22;9237;48.590;8.854;2023-07-31T12:38:37;26.20;77.50
18225;DHT22;9237;48.590;8.854;2023-07-31T12:41:04;26.80;80.00
18225;DHT22;9237;48.590;8.854;2023-07-31T12:43:32;27.50;76.30
18225;DHT22;9237;48.590;8.854;2023-07-31T12:45:59;27.70;73.20
18225;DHT22;9237;48.590;8.854;2023-07-31T12:48:27;28.00;72.90
18225;DHT22;9237;48.590;8.854;2023-07-31T12:50:54;27.60;73.10
18225;DHT22;9237;48.590;8.854;2023-07-31T12:53:21;26.80;76.60
18225;DHT22;9237;48.590;8.854;2023-07-31T12:55:48;26.60;79.00
18225;DHT22;9237;48.590;8.854;2023-07-31T12:58:15;27.10;76.80
18225;DHT22;9237;48.590;8.854;2023-07-31T13:00:42;27.20;75.40
18225;DHT22;9237;48.590;8.854;2023-07-31T13:03:09;26.60;74.40
18225;DHT22;9237;48.590;8.854;2023-07-31T13:05:37;25.70;76.90
18225;DHT22;9237;48.590;8.854;2023-07-31T13:08:04;24.70;80.00
18225;DHT22;9237;48.590;8.854;2023-07-31T13:10:31;24.40;81.20
18225;DHT22;9237;48.590;8.854;2023-07-31T13:12:58;24.10;83.20
18225;DHT22;9237;48.590;8.854;2023-07-31T13:15:24;23.90;83.40
18225;DHT22;9237;48.590;8.854;2023-07-31T13:17:51;23.90;85.40
18225;DHT22;9237;48.590;8.854;2023-07-31T13:20:18;23.90;84.80
18225;DHT22;9237;48.590;8.854;2023-07-31T13:22:46;23.90;83.50
18225;DHT22;9237;48.590;8.854;2023-07-31T13:25:13;23.90;85.60
18225;DHT22;9237;48.590;8.854;2023-07-31T13:27:40;24.10;80.90
18225;DHT22;9237;48.590;8.854;2023-07-31T13:30:08;23.80;82.00
18225;DHT22;9237;48.590;8.854;2023-07-31T13:32:34;23.60;79.70
18225;DHT22;9237;48.590;8.854;2023-07-31T13:35:04;23.70;81.40
18225;DHT22;9237;48.590;8.854;2023-07-31T13:37:31;23.60;81.10
18225;DHT22;9237;48.590;8.854;2023-07-31T13:39:59;23.50;83.90
18225;DHT22;9237;48.590;8.854;2023-07-31T13:42:26;23.80;82.70
18225;DHT22;9237;48.590;8.854;2023-07-31T13:44:54;23.80;80.10
18225;DHT22;9237;48.590;8.854;2023-07-31T13:47:21;23.80;81.20
18225;DHT22;9237;48.590;8.854;2023-07-31T13:49:48;23.80;80.80
18225;DHT22;9237;48.590;8.854;2023-07-31T13:52:15;23.60;80.20
18225;DHT22;9237;48.590;8.854;2023-07-31T13:54:41;23.70;81.80
18225;DHT22;9237;48.590;8.854;2023-07-31T13:57:10;23.90;80.20
18225;DHT22;9237;48.590;8.854;2023-07-31T13:59:37;23.90;80.10
18225;DHT22;9237;48.590;8.854;2023-07-31T14:02:04;23.90;78.90
18225;DHT22;9237;48.590;8.854;2023-07-31T14:04:31;23.70;77.80
18225;DHT22;9237;48.590;8.854;2023-07-31T14:06:58;23.90;80.80
18225;DHT22;9237;48.590;8.854;2023-07-31T14:09:25;23.60;81.10
18225;DHT22;9237;48.590;8.854;2023-07-31T14:11:53;23.70;81.30
18225;DHT22;9237;48.590;8.854;2023-07-31T14:14:21;23.80;78.30
18225;DHT22;9237;48.590;8.854;2023-07-31T14:16:48;23.90;78.90
18225;DHT22;9237;48.590;8.854;2023-07-31T14:19:14;23.80;77.80
18225;DHT22;9237;48.590;8.854;2023-07-31T14:21:41;23.70;77.50
18225;DHT22;9237;48.590;8.854;2023-07-31T14:24:08;23.70;79.20
18225;DHT22;9237;48.590;8.854;2023-07-31T14:26:35;23.90;81.10
18225;DHT22;9237;48.590;8.854;2023-07-31T14:29:01;24.10;78.90
18225;DHT22;9237;48.590;8.854;2023-07-31T14:31:30;24.20;78.20
18225;DHT22;9237;48.590;8.854;2023-07-31T14:33:56;24.70;79.10
18225;DHT22;9237;48.590;8.854;2023-07-31T14:36:23;25.30;79.10
18225;DHT22;9237;48.590;8.854;2023-07-31T14:38:50;25.60;75.40
18225;DHT22;9237;48.590;8.854;2023-07-31T14:41:17;25.40;75.70
18225;DHT22;9237;48.590;8.854;2023-07-31T14:43:43;25.30;74.90
18225;DHT22;9237;48.590;8.854;2023-07-31T14:46:10;25.30;76.30
18225;DHT22;9237;48.590;8.854;2023-07-31T14:48:38;25.30;75.10
18225;DHT22;9237;48.590;8.854;2023-07-31T14:51:05;25.10;76.00
18225;DHT22;9237;48.590;8.854;2023-07-31T14:53:32;24.80;76.30
18225;DHT22;9237;48.590;8.854;2023-07-31T14:55:58;24.50;77.80
18225;DHT22;9237;48.590;8.854;2023-07-31T14:58:25;24.40;77.70
18225;DHT22;9237;48.590;8.854;2023-07-31T15:00:52;24.30;77.30
18225;DHT22;9237;48.590;8.854;2023-07-31T15:03:19;24.30;78.90
18225;DHT22;9237;48.590;8.854;2023-07-31T15:05:47;24.20;78.60
18225;DHT22;9237;48.590;8.854;2023-07-31T15:08:14;24.10;79.00
18225;DHT22;9237;48.590;8.854;2023-07-31T15:10:41;23.70;78.10
18225;DHT22;9237;48.590;8.854;2023-07-31T15:13:08;23.50;79.10
18225;DHT22;9237;48.590;8.854;2023-07-31T15:15:34;23.50;79.20
18225;DHT22;9237;48.590;8.854;2023-07-31T15:18:01;23.40;78.70
18225;DHT22;9237;48.590;8.854;2023-07-31T15:20:28;23.40;79.50
18225;DHT22;9237;48.590;8.854;2023-07-31T15:22:57;23.40;79.80
18225;DHT22;9237;48.590;8.854;2023-07-31T15:25:23;23.10;78.90
18225;DHT22;9237;48.590;8.854;2023-07-31T15:27:50;23.20;80.20
18225;DHT22;9237;48.590;8.854;2023-07-31T15:30:17;23.20;79.80
18225;DHT22;9237;48.590;8.854;2023-07-31T15:32:45;23.70;80.00
18225;DHT22;9237;48.590;8.854;2023-07-31T15:35:14;23.60;79.90
18225;DHT22;9237;48.590;8.854;2023-07-31T15:37:40;23.80;80.00
18225;DHT22;9237;48.590;8.854;2023-07-31T15:40:09;23.90;79.00
18225;DHT22;9237;48.590;8.854;2023-07-31T15:42:36;23.80;80.30
18225;DHT22;9237;48.590;8.854;2023-07-31T15:45:06;23.70;80.30
18225;DHT22;9237;48.590;8.854;2023-07-31T15:47:34;23.80;81.80